BAW2588 EGKK-LIPX
Flight info
| Callsign | BAW2588 |
|---|---|
| Flight time | 1h 36m |
| Altitude | 37000 |
| Route | SFD Y47 BENBO UL612 VEULE DCT TEPRI UN491 POGZI DCT GELTA DCT LUVAL DCT SHARA DCT DEVDI DCT RIPUS DCT GERSA DCT SOSON DCT ODINA DCT LEGLO/N0373F180 L615 NEVNI |
| Aircraft | A20N/M-SDE2E3FGHIRWXY/LB1 |
Departure
| Time | 2026-05-05 13:25 |
|---|---|
| Airport | London Gatwick Airport (EGKK) |
Arrival
| Time | 2026-05-05 15:02 |
|---|---|
| Airport | Verona Villafranca Valerio Catullo Airport (LIPX) |
| Time | Latitude | Longitude | Altitude | Speed | Heading |
|---|---|---|---|---|---|
| 2026-05-05 13:21 | 51.14757 | -0.21354 | 205 ft | 0 kts | 248° |
| 2026-05-05 13:22 | 51.14757 | -0.21356 | 205 ft | 1 kts | 248° |
| 2026-05-05 13:22 | 51.14743 | -0.21380 | 209 ft | 4 kts | 212° |
| 2026-05-05 13:22 | 51.14703 | -0.21376 | 207 ft | 8 kts | 161° |
| 2026-05-05 13:22 | 51.14641 | -0.21339 | 214 ft | 8 kts | 162° |
| 2026-05-05 13:23 | 51.14639 | -0.21338 | 213 ft | 0 kts | 162° |
| 2026-05-05 13:23 | 51.14632 | -0.21335 | 211 ft | 3 kts | 162° |
| 2026-05-05 13:23 | 51.14601 | -0.21319 | 214 ft | 7 kts | 162° |
| 2026-05-05 13:23 | 51.14550 | -0.21281 | 213 ft | 10 kts | 141° |
| 2026-05-05 13:24 | 51.14524 | -0.21167 | 206 ft | 13 kts | 82° |
| 2026-05-05 13:24 | 51.14527 | -0.21148 | 212 ft | 2 kts | 79° |
| 2026-05-05 13:24 | 51.14558 | -0.20918 | 211 ft | 60 kts | 77° |
| 2026-05-05 13:24 | 51.14706 | -0.19858 | 208 ft | 133 kts | 77° |
| 2026-05-05 13:25 | 51.14949 | -0.18201 | 587 ft | 160 kts | 77° |
| 2026-05-05 13:25 | 51.15200 | -0.16382 | 1307 ft | 178 kts | 76° |
| 2026-05-05 13:25 | 51.15485 | -0.14286 | 1960 ft | 203 kts | 76° |
| 2026-05-05 13:25 | 51.15791 | -0.12020 | 2890 ft | 215 kts | 76° |
| 2026-05-05 13:26 | 51.16067 | -0.09667 | 3916 ft | 222 kts | 85° |
| 2026-05-05 13:26 | 51.15734 | -0.07242 | 5074 ft | 227 kts | 117° |
| 2026-05-05 13:26 | 51.14640 | -0.05394 | 6069 ft | 238 kts | 148° |
| 2026-05-05 13:26 | 51.13062 | -0.04521 | 7013 ft | 248 kts | 167° |
| 2026-05-05 13:27 | 51.11302 | -0.03968 | 7627 ft | 270 kts | 169° |
| 2026-05-05 13:27 | 51.09379 | -0.03398 | 8424 ft | 283 kts | 166° |
| 2026-05-05 13:27 | 51.07474 | -0.02572 | 9463 ft | 287 kts | 164° |
| 2026-05-05 13:27 | 51.05556 | -0.01695 | 10443 ft | 291 kts | 163° |
| 2026-05-05 13:28 | 51.03578 | -0.00771 | 11414 ft | 295 kts | 163° |
| 2026-05-05 13:28 | 51.01603 | 0.00160 | 12370 ft | 300 kts | 162° |
| 2026-05-05 13:28 | 50.99582 | 0.01116 | 13316 ft | 304 kts | 162° |
| 2026-05-05 13:28 | 50.97549 | 0.02079 | 14212 ft | 308 kts | 162° |
| 2026-05-05 13:29 | 50.95493 | 0.03053 | 15062 ft | 312 kts | 162° |
| 2026-05-05 13:29 | 50.93389 | 0.04048 | 15920 ft | 315 kts | 162° |
| 2026-05-05 13:29 | 50.91282 | 0.05043 | 16757 ft | 319 kts | 162° |
| 2026-05-05 13:29 | 50.89157 | 0.06045 | 17594 ft | 322 kts | 162° |
| 2026-05-05 13:30 | 50.86977 | 0.07073 | 18386 ft | 327 kts | 162° |
| 2026-05-05 13:30 | 50.84802 | 0.08096 | 19096 ft | 330 kts | 162° |
| 2026-05-05 13:30 | 50.82568 | 0.09144 | 19811 ft | 334 kts | 163° |
| 2026-05-05 13:30 | 50.80347 | 0.10185 | 20502 ft | 337 kts | 163° |
| 2026-05-05 13:31 | 50.78090 | 0.11207 | 21191 ft | 341 kts | 167° |
| 2026-05-05 13:31 | 50.75707 | 0.11650 | 21875 ft | 345 kts | 180° |
| 2026-05-05 13:31 | 50.73327 | 0.11247 | 22541 ft | 348 kts | 193° |
| 2026-05-05 13:31 | 50.70941 | 0.10359 | 22917 ft | 362 kts | 193° |
| 2026-05-05 13:32 | 50.68408 | 0.09422 | 23106 ft | 379 kts | 193° |
| 2026-05-05 13:32 | 50.65799 | 0.08467 | 23275 ft | 396 kts | 193° |
| 2026-05-05 13:32 | 50.63072 | 0.07478 | 23539 ft | 409 kts | 193° |
| 2026-05-05 13:32 | 50.60289 | 0.06472 | 24132 ft | 410 kts | 192° |
| 2026-05-05 13:33 | 50.57487 | 0.05460 | 24790 ft | 410 kts | 192° |
| 2026-05-05 13:33 | 50.54711 | 0.04460 | 25369 ft | 411 kts | 192° |
| 2026-05-05 13:33 | 50.51932 | 0.03460 | 25935 ft | 414 kts | 192° |
| 2026-05-05 13:33 | 50.49095 | 0.02516 | 26457 ft | 416 kts | 187° |
| 2026-05-05 13:34 | 50.46223 | 0.02421 | 26964 ft | 417 kts | 173° |
| 2026-05-05 13:34 | 50.43379 | 0.03424 | 27477 ft | 418 kts | 160° |
| 2026-05-05 13:34 | 50.40802 | 0.05439 | 27955 ft | 420 kts | 147° |
| 2026-05-05 13:34 | 50.38347 | 0.07990 | 28427 ft | 423 kts | 147° |
| 2026-05-05 13:35 | 50.35904 | 0.10538 | 28889 ft | 425 kts | 147° |
| 2026-05-05 13:35 | 50.33416 | 0.13121 | 29342 ft | 427 kts | 147° |
| 2026-05-05 13:35 | 50.30954 | 0.15667 | 29785 ft | 429 kts | 147° |
| 2026-05-05 13:35 | 50.28438 | 0.18261 | 30190 ft | 431 kts | 147° |
| 2026-05-05 13:36 | 50.25941 | 0.20829 | 30540 ft | 434 kts | 147° |
| 2026-05-05 13:36 | 50.23397 | 0.23442 | 30906 ft | 436 kts | 147° |
| 2026-05-05 13:36 | 50.20866 | 0.26038 | 31327 ft | 437 kts | 147° |
| 2026-05-05 13:36 | 50.18342 | 0.28629 | 31793 ft | 436 kts | 147° |
| 2026-05-05 13:37 | 50.15828 | 0.31216 | 32274 ft | 435 kts | 147° |
| 2026-05-05 13:37 | 50.13288 | 0.33829 | 32758 ft | 433 kts | 148° |
| 2026-05-05 13:37 | 50.10785 | 0.36402 | 33227 ft | 432 kts | 148° |
| 2026-05-05 13:37 | 50.08287 | 0.38964 | 33684 ft | 431 kts | 148° |
| 2026-05-05 13:38 | 50.05766 | 0.41545 | 34101 ft | 430 kts | 148° |
| 2026-05-05 13:38 | 50.03277 | 0.44090 | 34409 ft | 431 kts | 148° |
| 2026-05-05 13:38 | 50.00775 | 0.46644 | 34729 ft | 431 kts | 148° |
| 2026-05-05 13:38 | 49.98278 | 0.49190 | 35020 ft | 431 kts | 148° |
| 2026-05-05 13:39 | 49.95745 | 0.51768 | 35321 ft | 432 kts | 148° |
| 2026-05-05 13:39 | 49.93245 | 0.54311 | 35593 ft | 432 kts | 148° |
| 2026-05-05 13:39 | 49.90712 | 0.56883 | 35876 ft | 433 kts | 148° |
| 2026-05-05 13:39 | 49.88206 | 0.59438 | 36152 ft | 433 kts | 147° |
| 2026-05-05 13:40 | 49.85818 | 0.62247 | 36411 ft | 435 kts | 141° |
| 2026-05-05 13:40 | 49.83588 | 0.65476 | 36656 ft | 437 kts | 135° |
| 2026-05-05 13:40 | 49.81544 | 0.68944 | 36882 ft | 438 kts | 134° |
| 2026-05-05 13:40 | 49.79518 | 0.72413 | 36905 ft | 437 kts | 134° |
| 2026-05-05 13:41 | 49.75426 | 0.79372 | 36903 ft | 436 kts | 134° |
| 2026-05-05 13:41 | 49.71329 | 0.86294 | 36901 ft | 436 kts | 134° |
| 2026-05-05 13:42 | 49.67256 | 0.93153 | 36891 ft | 436 kts | 134° |
| 2026-05-05 13:42 | 49.63151 | 1.00048 | 36888 ft | 435 kts | 134° |
| 2026-05-05 13:43 | 49.59062 | 1.06897 | 36882 ft | 434 kts | 134° |
| 2026-05-05 13:43 | 49.54973 | 1.13729 | 36874 ft | 434 kts | 134° |
| 2026-05-05 13:44 | 49.50868 | 1.20569 | 36875 ft | 433 kts | 134° |
| 2026-05-05 13:44 | 49.46771 | 1.27378 | 36875 ft | 433 kts | 134° |
| 2026-05-05 13:45 | 49.42710 | 1.34109 | 36870 ft | 432 kts | 134° |
| 2026-05-05 13:45 | 49.38615 | 1.40878 | 36869 ft | 432 kts | 134° |
| 2026-05-05 13:46 | 49.34519 | 1.47630 | 36867 ft | 432 kts | 134° |
| 2026-05-05 13:46 | 49.30420 | 1.54369 | 36859 ft | 432 kts | 134° |
| 2026-05-05 13:47 | 49.26310 | 1.61110 | 36854 ft | 433 kts | 134° |
| 2026-05-05 13:47 | 49.22189 | 1.67851 | 36847 ft | 433 kts | 134° |
| 2026-05-05 13:48 | 49.18761 | 1.73444 | 36849 ft | 433 kts | 134° |
| 2026-05-05 13:48 | 49.13959 | 1.81260 | 36851 ft | 434 kts | 134° |
| 2026-05-05 13:49 | 49.09822 | 1.87976 | 36852 ft | 434 kts | 134° |
| 2026-05-05 13:49 | 49.06380 | 1.93548 | 36852 ft | 434 kts | 134° |
| 2026-05-05 13:50 | 49.02573 | 1.99698 | 36857 ft | 434 kts | 134° |
| 2026-05-05 13:50 | 48.98446 | 2.06349 | 36852 ft | 434 kts | 134° |
| 2026-05-05 13:51 | 48.94292 | 2.13026 | 36846 ft | 434 kts | 134° |
| 2026-05-05 13:51 | 48.90134 | 2.19692 | 36822 ft | 434 kts | 134° |
| 2026-05-05 13:52 | 48.85974 | 2.26343 | 36827 ft | 434 kts | 135° |
| 2026-05-05 13:52 | 48.81793 | 2.33012 | 36827 ft | 436 kts | 135° |
| 2026-05-05 13:53 | 48.77624 | 2.39644 | 36822 ft | 435 kts | 135° |
| 2026-05-05 13:53 | 48.73439 | 2.46284 | 36823 ft | 436 kts | 135° |
| 2026-05-05 13:54 | 48.69239 | 2.52931 | 36832 ft | 437 kts | 135° |
| 2026-05-05 13:54 | 48.65031 | 2.59573 | 36834 ft | 438 kts | 135° |
| 2026-05-05 13:55 | 48.60788 | 2.66254 | 36839 ft | 439 kts | 135° |
| 2026-05-05 13:55 | 48.57023 | 2.73420 | 36831 ft | 441 kts | 120° |
| 2026-05-05 13:56 | 48.55776 | 2.77688 | 36837 ft | 443 kts | 109° |
| 2026-05-05 13:56 | 48.55052 | 2.82196 | 36823 ft | 446 kts | 99° |
| 2026-05-05 13:56 | 48.54675 | 2.91541 | 36818 ft | 446 kts | 94° |
| 2026-05-05 13:57 | 48.54373 | 3.00898 | 36805 ft | 446 kts | 95° |
| 2026-05-05 13:57 | 48.54052 | 3.10255 | 36793 ft | 446 kts | 95° |
| 2026-05-05 13:58 | 48.53725 | 3.19548 | 36780 ft | 446 kts | 95° |
| 2026-05-05 13:58 | 48.53387 | 3.28910 | 36783 ft | 446 kts | 95° |
| 2026-05-05 13:59 | 48.52866 | 3.42973 | 36773 ft | 447 kts | 95° |
| 2026-05-05 14:00 | 48.52330 | 3.56994 | 36796 ft | 451 kts | 95° |
| 2026-05-05 14:00 | 48.51960 | 3.66405 | 36787 ft | 447 kts | 95° |
| 2026-05-05 14:01 | 48.51584 | 3.75789 | 36793 ft | 449 kts | 96° |
| 2026-05-05 14:01 | 48.51199 | 3.85184 | 36793 ft | 449 kts | 96° |
| 2026-05-05 14:02 | 48.50806 | 3.94584 | 36793 ft | 449 kts | 96° |
| 2026-05-05 14:02 | 48.50095 | 4.03901 | 36792 ft | 446 kts | 104° |
| 2026-05-05 14:03 | 48.48536 | 4.12914 | 36787 ft | 444 kts | 108° |
| 2026-05-05 14:03 | 48.46909 | 4.21846 | 36782 ft | 445 kts | 108° |
| 2026-05-05 14:04 | 48.45267 | 4.30834 | 36786 ft | 445 kts | 108° |
| 2026-05-05 14:04 | 48.43611 | 4.39838 | 36791 ft | 445 kts | 108° |
| 2026-05-05 14:05 | 48.41947 | 4.48832 | 36781 ft | 446 kts | 108° |
| 2026-05-05 14:05 | 48.40281 | 4.57795 | 36792 ft | 446 kts | 108° |
| 2026-05-05 14:06 | 48.38605 | 4.66776 | 36798 ft | 446 kts | 108° |
| 2026-05-05 14:06 | 48.36917 | 4.75768 | 36798 ft | 446 kts | 108° |
| 2026-05-05 14:07 | 48.35236 | 4.84683 | 36800 ft | 446 kts | 108° |
| 2026-05-05 14:07 | 48.33537 | 4.93652 | 36801 ft | 446 kts | 109° |
| 2026-05-05 14:08 | 48.31826 | 5.02638 | 36803 ft | 447 kts | 109° |
| 2026-05-05 14:08 | 48.30111 | 5.11608 | 36804 ft | 447 kts | 109° |
| 2026-05-05 14:09 | 48.28369 | 5.20567 | 36805 ft | 447 kts | 109° |
| 2026-05-05 14:09 | 48.26575 | 5.29455 | 36806 ft | 447 kts | 110° |
| 2026-05-05 14:10 | 48.24765 | 5.38399 | 36810 ft | 447 kts | 110° |
| 2026-05-05 14:10 | 48.22964 | 5.47292 | 36811 ft | 446 kts | 110° |
| 2026-05-05 14:11 | 48.21154 | 5.56194 | 36814 ft | 446 kts | 110° |
| 2026-05-05 14:11 | 48.19336 | 5.65093 | 36815 ft | 446 kts | 110° |
| 2026-05-05 14:12 | 48.17524 | 5.73927 | 36819 ft | 446 kts | 110° |
| 2026-05-05 14:12 | 48.15693 | 5.82809 | 36833 ft | 447 kts | 110° |
| 2026-05-05 14:13 | 48.13851 | 5.91706 | 36822 ft | 446 kts | 110° |
| 2026-05-05 14:13 | 48.12011 | 6.00561 | 36828 ft | 445 kts | 111° |
| 2026-05-05 14:14 | 48.10163 | 6.09409 | 36828 ft | 445 kts | 111° |
| 2026-05-05 14:14 | 48.08306 | 6.18257 | 36828 ft | 445 kts | 111° |
| 2026-05-05 14:15 | 48.06454 | 6.27049 | 36836 ft | 446 kts | 111° |
| 2026-05-05 14:15 | 48.04583 | 6.35888 | 36848 ft | 446 kts | 111° |
| 2026-05-05 14:16 | 48.02701 | 6.44744 | 36840 ft | 447 kts | 111° |
| 2026-05-05 14:16 | 48.00815 | 6.53588 | 36842 ft | 444 kts | 111° |
| 2026-05-05 14:17 | 47.98934 | 6.62358 | 36843 ft | 445 kts | 111° |
| 2026-05-05 14:17 | 47.96876 | 6.71081 | 36843 ft | 443 kts | 116° |
| 2026-05-05 14:18 | 47.94558 | 6.79611 | 36837 ft | 444 kts | 115° |
| 2026-05-05 14:18 | 47.92248 | 6.88159 | 36844 ft | 445 kts | 116° |
| 2026-05-05 14:19 | 47.89929 | 6.96684 | 36845 ft | 445 kts | 116° |
| 2026-05-05 14:19 | 47.87592 | 7.05238 | 36843 ft | 445 kts | 116° |
| 2026-05-05 14:20 | 47.85262 | 7.13736 | 36843 ft | 445 kts | 116° |
| 2026-05-05 14:20 | 47.82915 | 7.22267 | 36841 ft | 445 kts | 116° |
| 2026-05-05 14:21 | 47.80552 | 7.30819 | 36852 ft | 446 kts | 116° |
| 2026-05-05 14:21 | 47.78182 | 7.39371 | 36851 ft | 446 kts | 116° |
| 2026-05-05 14:22 | 47.75821 | 7.47858 | 36852 ft | 447 kts | 116° |
| 2026-05-05 14:22 | 47.73084 | 7.56094 | 36855 ft | 442 kts | 125° |
| 2026-05-05 14:23 | 47.69560 | 7.63538 | 36855 ft | 440 kts | 130° |
| 2026-05-05 14:23 | 47.65924 | 7.70846 | 36855 ft | 440 kts | 130° |
| 2026-05-05 14:24 | 47.62283 | 7.78170 | 36845 ft | 441 kts | 130° |
| 2026-05-05 14:24 | 47.58642 | 7.85471 | 36852 ft | 441 kts | 130° |
| 2026-05-05 14:25 | 47.54991 | 7.92771 | 36850 ft | 441 kts | 130° |
| 2026-05-05 14:25 | 47.51347 | 8.00037 | 36855 ft | 441 kts | 130° |
| 2026-05-05 14:26 | 47.47681 | 8.07329 | 36833 ft | 442 kts | 131° |
| 2026-05-05 14:26 | 47.44008 | 8.14613 | 36845 ft | 442 kts | 131° |
| 2026-05-05 14:27 | 47.40319 | 8.21910 | 36845 ft | 443 kts | 131° |
| 2026-05-05 14:27 | 47.36623 | 8.29201 | 36847 ft | 444 kts | 131° |
| 2026-05-05 14:28 | 47.32933 | 8.36462 | 36849 ft | 445 kts | 131° |
| 2026-05-05 14:28 | 47.29069 | 8.43546 | 36854 ft | 440 kts | 140° |
| 2026-05-05 14:29 | 47.24128 | 8.48647 | 36850 ft | 430 kts | 159° |
| 2026-05-05 14:29 | 47.18468 | 8.51108 | 36855 ft | 421 kts | 176° |
| 2026-05-05 14:30 | 47.12638 | 8.51937 | 36861 ft | 422 kts | 178° |
| 2026-05-05 14:30 | 47.06793 | 8.52791 | 36880 ft | 421 kts | 178° |
| 2026-05-05 14:31 | 47.01014 | 8.53632 | 36894 ft | 419 kts | 178° |
| 2026-05-05 14:31 | 46.95207 | 8.54469 | 36881 ft | 418 kts | 178° |
| 2026-05-05 14:32 | 46.89408 | 8.55302 | 36880 ft | 420 kts | 178° |
| 2026-05-05 14:32 | 46.83603 | 8.56135 | 36873 ft | 418 kts | 178° |
| 2026-05-05 14:33 | 46.77801 | 8.56965 | 36894 ft | 422 kts | 178° |
| 2026-05-05 14:33 | 46.72044 | 8.57794 | 36904 ft | 417 kts | 179° |
| 2026-05-05 14:34 | 46.66286 | 8.58619 | 36928 ft | 413 kts | 179° |
| 2026-05-05 14:34 | 46.60534 | 8.59437 | 36945 ft | 418 kts | 179° |
| 2026-05-05 14:35 | 46.54774 | 8.60547 | 36966 ft | 422 kts | 168° |
| 2026-05-05 14:35 | 46.52040 | 8.62170 | 36965 ft | 432 kts | 156° |
| 2026-05-05 14:35 | 46.49545 | 8.64725 | 36969 ft | 442 kts | 143° |
| 2026-05-05 14:36 | 46.45222 | 8.71180 | 36988 ft | 447 kts | 140° |
| 2026-05-05 14:36 | 46.40872 | 8.77507 | 36998 ft | 442 kts | 142° |
| 2026-05-05 14:37 | 46.36647 | 8.83961 | 37018 ft | 453 kts | 131° |
| 2026-05-05 14:37 | 46.33288 | 8.91774 | 37012 ft | 458 kts | 127° |
| 2026-05-05 14:38 | 46.29962 | 8.99610 | 36901 ft | 454 kts | 128° |
| 2026-05-05 14:38 | 46.28284 | 9.03440 | 36487 ft | 452 kts | 129° |
| 2026-05-05 14:38 | 46.26597 | 9.07243 | 35893 ft | 452 kts | 129° |
| 2026-05-05 14:39 | 46.24883 | 9.11082 | 35134 ft | 454 kts | 130° |
| 2026-05-05 14:39 | 46.23160 | 9.14928 | 34427 ft | 455 kts | 130° |
| 2026-05-05 14:39 | 46.21438 | 9.18766 | 33715 ft | 456 kts | 130° |
| 2026-05-05 14:39 | 46.19715 | 9.22603 | 32812 ft | 459 kts | 130° |
| 2026-05-05 14:40 | 46.18548 | 9.25196 | 32211 ft | 461 kts | 130° |
| 2026-05-05 14:40 | 46.16785 | 9.29112 | 31272 ft | 465 kts | 130° |
| 2026-05-05 14:40 | 46.15028 | 9.33011 | 30288 ft | 470 kts | 130° |
| 2026-05-05 14:40 | 46.13257 | 9.36941 | 29509 ft | 468 kts | 129° |
| 2026-05-05 14:41 | 46.11490 | 9.40862 | 28897 ft | 460 kts | 129° |
| 2026-05-05 14:41 | 46.09766 | 9.44681 | 28275 ft | 454 kts | 129° |
| 2026-05-05 14:41 | 46.08038 | 9.48499 | 27640 ft | 449 kts | 129° |
| 2026-05-05 14:41 | 46.06352 | 9.52215 | 27011 ft | 444 kts | 129° |
| 2026-05-05 14:42 | 46.04663 | 9.55928 | 26301 ft | 439 kts | 129° |
| 2026-05-05 14:42 | 46.03007 | 9.59562 | 25750 ft | 434 kts | 129° |
| 2026-05-05 14:42 | 46.01352 | 9.63194 | 25143 ft | 430 kts | 129° |
| 2026-05-05 14:42 | 45.99737 | 9.66738 | 24621 ft | 425 kts | 128° |
| 2026-05-05 14:43 | 45.98120 | 9.70279 | 24011 ft | 422 kts | 128° |
| 2026-05-05 14:43 | 45.96507 | 9.73805 | 23435 ft | 417 kts | 128° |
| 2026-05-05 14:43 | 45.94931 | 9.77248 | 22786 ft | 414 kts | 128° |
| 2026-05-05 14:43 | 45.93329 | 9.80695 | 21904 ft | 412 kts | 124° |
| 2026-05-05 14:44 | 45.91765 | 9.84095 | 21263 ft | 410 kts | 124° |
| 2026-05-05 14:44 | 45.90216 | 9.87472 | 20824 ft | 402 kts | 124° |
| 2026-05-05 14:44 | 45.88682 | 9.90797 | 20245 ft | 398 kts | 124° |
| 2026-05-05 14:44 | 45.87154 | 9.94112 | 19715 ft | 392 kts | 124° |
| 2026-05-05 14:45 | 45.85661 | 9.97355 | 19038 ft | 391 kts | 124° |
| 2026-05-05 14:45 | 45.84174 | 10.00583 | 18511 ft | 386 kts | 124° |
| 2026-05-05 14:45 | 45.82694 | 10.03792 | 17957 ft | 382 kts | 124° |
| 2026-05-05 14:45 | 45.81237 | 10.06948 | 17364 ft | 379 kts | 124° |
| 2026-05-05 14:46 | 45.79782 | 10.10097 | 16841 ft | 374 kts | 124° |
| 2026-05-05 14:46 | 45.78357 | 10.13178 | 16157 ft | 374 kts | 124° |
| 2026-05-05 14:46 | 45.76923 | 10.16272 | 15524 ft | 373 kts | 124° |
| 2026-05-05 14:46 | 45.75482 | 10.19378 | 14946 ft | 370 kts | 124° |
| 2026-05-05 14:47 | 45.74075 | 10.22411 | 14435 ft | 366 kts | 124° |
| 2026-05-05 14:47 | 45.72670 | 10.25430 | 13977 ft | 360 kts | 124° |
| 2026-05-05 14:47 | 45.71292 | 10.28392 | 13417 ft | 359 kts | 124° |
| 2026-05-05 14:47 | 45.69903 | 10.31372 | 12889 ft | 355 kts | 124° |
| 2026-05-05 14:48 | 45.68544 | 10.34285 | 12366 ft | 352 kts | 124° |
| 2026-05-05 14:48 | 45.67197 | 10.37172 | 11827 ft | 350 kts | 124° |
| 2026-05-05 14:48 | 45.65829 | 10.40013 | 11611 ft | 337 kts | 129° |
| 2026-05-05 14:48 | 45.64253 | 10.42371 | 11487 ft | 322 kts | 140° |
| 2026-05-05 14:49 | 45.62477 | 10.44164 | 11345 ft | 308 kts | 151° |
| 2026-05-05 14:49 | 45.60616 | 10.45636 | 11097 ft | 300 kts | 152° |
| 2026-05-05 14:49 | 45.58825 | 10.47072 | 10787 ft | 296 kts | 152° |
| 2026-05-05 14:49 | 45.57029 | 10.48521 | 10396 ft | 294 kts | 152° |
| 2026-05-05 14:50 | 45.55260 | 10.49947 | 10022 ft | 293 kts | 152° |
| 2026-05-05 14:50 | 45.53503 | 10.51360 | 9668 ft | 291 kts | 152° |
| 2026-05-05 14:50 | 45.51739 | 10.52779 | 9311 ft | 289 kts | 152° |
| 2026-05-05 14:50 | 45.49985 | 10.54187 | 8900 ft | 287 kts | 152° |
| 2026-05-05 14:51 | 45.48263 | 10.55569 | 8496 ft | 286 kts | 152° |
| 2026-05-05 14:51 | 45.46526 | 10.56964 | 8087 ft | 284 kts | 152° |
| 2026-05-05 14:51 | 45.44816 | 10.58337 | 7733 ft | 283 kts | 152° |
| 2026-05-05 14:51 | 45.43121 | 10.59694 | 7364 ft | 281 kts | 152° |
| 2026-05-05 14:52 | 45.41403 | 10.61061 | 6973 ft | 279 kts | 152° |
| 2026-05-05 14:52 | 45.39725 | 10.62401 | 6627 ft | 278 kts | 152° |
| 2026-05-05 14:52 | 45.38033 | 10.63758 | 6279 ft | 276 kts | 152° |
| 2026-05-05 14:52 | 45.36274 | 10.64731 | 5917 ft | 273 kts | 174° |
| 2026-05-05 14:53 | 45.34424 | 10.64507 | 5535 ft | 270 kts | 201° |
| 2026-05-05 14:53 | 45.32855 | 10.63103 | 5209 ft | 265 kts | 224° |
| 2026-05-05 14:53 | 45.31619 | 10.61190 | 4922 ft | 262 kts | 231° |
| 2026-05-05 14:53 | 45.30476 | 10.59211 | 4776 ft | 253 kts | 231° |
| 2026-05-05 14:54 | 45.29349 | 10.57335 | 4465 ft | 252 kts | 229° |
| 2026-05-05 14:54 | 45.28165 | 10.55497 | 4177 ft | 250 kts | 227° |
| 2026-05-05 14:54 | 45.26818 | 10.54007 | 3924 ft | 248 kts | 204° |
| 2026-05-05 14:54 | 45.25145 | 10.53658 | 3823 ft | 240 kts | 173° |
| 2026-05-05 14:55 | 45.23645 | 10.54537 | 3760 ft | 234 kts | 142° |
| 2026-05-05 14:55 | 45.22498 | 10.56110 | 3699 ft | 228 kts | 133° |
| 2026-05-05 14:55 | 45.21460 | 10.57794 | 3618 ft | 221 kts | 126° |
| 2026-05-05 14:55 | 45.20958 | 10.59765 | 3524 ft | 212 kts | 90° |
| 2026-05-05 14:56 | 45.21280 | 10.61718 | 3464 ft | 201 kts | 62° |
| 2026-05-05 14:56 | 45.22052 | 10.63352 | 3347 ft | 196 kts | 48° |
| 2026-05-05 14:56 | 45.22964 | 10.64756 | 3210 ft | 194 kts | 44° |
| 2026-05-05 14:56 | 45.23897 | 10.66103 | 3029 ft | 192 kts | 44° |
| 2026-05-05 14:57 | 45.24810 | 10.67437 | 3004 ft | 190 kts | 44° |
| 2026-05-05 14:57 | 45.25764 | 10.68808 | 2993 ft | 192 kts | 44° |
| 2026-05-05 14:57 | 45.26695 | 10.70156 | 2989 ft | 192 kts | 44° |
| 2026-05-05 14:57 | 45.27625 | 10.71502 | 2998 ft | 192 kts | 44° |
| 2026-05-05 14:58 | 45.28548 | 10.72840 | 3028 ft | 183 kts | 44° |
| 2026-05-05 14:58 | 45.29426 | 10.74115 | 2826 ft | 182 kts | 44° |
| 2026-05-05 14:58 | 45.30316 | 10.75407 | 2588 ft | 186 kts | 45° |
| 2026-05-05 14:58 | 45.31238 | 10.76743 | 2349 ft | 190 kts | 43° |
| 2026-05-05 14:59 | 45.32158 | 10.78089 | 2071 ft | 189 kts | 45° |
| 2026-05-05 14:59 | 45.33078 | 10.79421 | 1838 ft | 189 kts | 44° |
| 2026-05-05 14:59 | 45.33969 | 10.80713 | 1582 ft | 177 kts | 44° |
| 2026-05-05 14:59 | 45.34787 | 10.81906 | 1369 ft | 160 kts | 44° |
| 2026-05-05 15:00 | 45.35521 | 10.82971 | 1164 ft | 144 kts | 44° |
| 2026-05-05 15:00 | 45.35978 | 10.83635 | 1042 ft | 138 kts | 44° |
| 2026-05-05 15:00 | 45.36852 | 10.84907 | 798 ft | 131 kts | 44° |
| 2026-05-05 15:00 | 45.37486 | 10.85849 | 602 ft | 133 kts | 44° |
| 2026-05-05 15:01 | 45.38110 | 10.86770 | 471 ft | 130 kts | 40° |
| 2026-05-05 15:01 | 45.38757 | 10.87695 | 277 ft | 129 kts | 41° |
| 2026-05-05 15:01 | 45.39366 | 10.88555 | 237 ft | 112 kts | 43° |
| 2026-05-05 15:01 | 45.39771 | 10.89127 | 239 ft | 65 kts | 46° |
| 2026-05-05 15:02 | 45.40060 | 10.89558 | 244 ft | 27 kts | 45° |
| 2026-05-05 15:02 | 45.40160 | 10.89620 | 248 ft | 14 kts | 327° |
| 2026-05-05 15:02 | 45.40235 | 10.89519 | 250 ft | 15 kts | 285° |
| 2026-05-05 15:02 | 45.40179 | 10.89386 | 246 ft | 19 kts | 226° |
| 2026-05-05 15:03 | 45.40078 | 10.89244 | 245 ft | 23 kts | 225° |
| 2026-05-05 15:03 | 45.39953 | 10.89069 | 242 ft | 27 kts | 224° |
| 2026-05-05 15:03 | 45.39876 | 10.88863 | 241 ft | 25 kts | 284° |
| 2026-05-05 15:03 | 45.39925 | 10.88704 | 243 ft | 14 kts | 278° |
| 2026-05-05 15:04 | 45.39913 | 10.88564 | 245 ft | 14 kts | 269° |
| 2026-05-05 15:04 | 45.39913 | 10.88515 | 246 ft | 0 kts | 270° |